KJCT/JCT METAR and TAF weather

Enter ICAO airport designator
Station Type Date Time Source
KJCT METAR 2021/02/27 08:51 UTC NOAA

KJCT 270851Z AUTO 04004KT 5SM BR OVC007 15/13 A2990 RMK AO2 CIG 005V010 SLP096 T01500128 58008


Station Type Date Time Source
KJCT Decoded METAR 2021/02/27 08:51 UTC NOAA

KIMBLE COUNTY AIRPORT, TX, United States (KJCT) 30-31N 099-46W 523M
Feb 27, 2021 - 03:51 AM EST / 2021.02.27 0851 UTC
Wind: from the NE (040 degrees) at 5 MPH (4 KT):0
Visibility: 5 mile(s):0
Sky conditions: overcast
Weather: mist
Temperature: 59.0 F (15.0 C)
Dew Point: 55.0 F (12.8 C)
Relative Humidity: 86%
Pressure (altimeter): 29.9 in. Hg (1012 hPa)
Pressure tendency: 0.02 inches (0.8 hPa) lower than three hours ago
ob: KJCT 270851Z AUTO 04004KT 5SM BR OVC007 15/13 A2990 RMK AO2 CIG 005V010 SLP096 T01500128 58008
cycle: 9

Station Type Date Time Source
KJCT TAF 2021/02/27 07:27 UTC NOAA

TAF
AMD KJCT 270725Z 2707/2806 VRB04KT 5SM BR BKN005
FM271000 VRB03KT 3SM BR OVC004
FM271900 21007KT P6SM OVC015
FM280000 18007KT P6SM SCT040

Example: see airport list